Latest Weather Observations for Kuitpo

IDS60801

Issued at 1:05 pm CST Friday 22 August 2014 (issued every 30 minutes, with the page automatically refreshed every 10 minutes)

About weather observations | Map of weather stations | Latest weather observations for SA | Other Formats
Station Details ID: 023887 Name: KUITPO FOREST RESERVE Lat: -35.17 Lon: 138.68 Height: 365.0 m
Data from the previous 72 hours. | See also: Recent months at Kuitpo
Date/Time
CST
Temp
°C
App
Temp
°C
Dew
Point
Rel
Hum
%
Delta-T
°C
Wind Press
QNH
hPa
Press
MSL
hPa
Rain
since 9 am
mm
Dir
 
Spd
km/h
Gust
km/h
Spd
kts
Gust
kts
22/01:00pm 18.6 15.0 6.8 46 6.0 NE 15 22 8 12 1022.8 1023.0 0.0
22/12:30pm 17.6 13.6 6.5 48 5.6 NE 17 26 9 14 1023.4 1023.6 0.0
22/12:00pm 17.4 12.7 5.0 44 6.0 NE 19 30 10 16 1024.0 1024.3 0.0
22/11:30am 17.3 13.2 6.2 48 5.5 NE 17 26 9 14 1024.4 1024.7 0.0
22/11:00am 16.9 12.7 5.5 47 5.6 NNE 17 28 9 15 1024.7 1025.0 0.0
22/10:30am 15.8 11.4 4.5 47 5.4 NNE 17 28 9 15 1025.0 1025.2 0.0
22/10:00am 14.9 10.9 5.1 52 4.7 NNE 15 30 8 16 1025.2 1025.4 0.0
22/09:30am 13.5 8.7 4.4 54 4.2 NE 19 30 10 16 1025.2 1025.4 0.0
22/09:00am 13.2 7.9 4.9 57 3.9 NE 22 35 12 19 1025.2 1025.4 0.0
22/08:30am 11.8 6.8 4.5 61 3.4 NE 20 30 11 16 1025.1 1025.3 0.0
22/08:00am 9.9 5.0 3.9 66 2.7 NE 19 28 10 15 1025.0 1025.2 0.0
22/07:30am 9.5 4.6 4.3 70 2.3 NE 19 28 10 15 1024.7 1025.0 0.0
22/07:00am 9.1 4.2 4.3 72 2.2 NE 19 28 10 15 1024.2 1024.5 0.0
22/06:30am 9.2 4.4 4.6 73 2.1 NE 19 30 10 16 1023.8 1024.1 0.0
22/06:00am 9.2 4.2 4.6 73 2.1 NE 20 28 11 15 1023.5 1023.7 0.0
22/05:30am 9.1 4.1 4.7 74 2.0 NE 20 33 11 18 1023.3 1023.5 0.0
22/05:00am 9.3 4.3 4.7 73 2.1 NE 20 30 11 16 1023.2 1023.4 0.0
22/04:30am 9.5 3.8 4.9 73 2.1 NE 24 35 13 19 1023.2 1023.4 0.0
22/04:00am 9.3 4.0 4.9 74 2.0 NE 22 30 12 16 1023.2 1023.4 0.0
22/03:30am 9.3 4.0 4.9 74 2.0 NE 22 32 12 17 1023.1 1023.3 0.0
22/03:00am 9.4 4.1 5.2 75 1.9 NE 22 32 12 17 1023.2 1023.4 0.0
22/02:30am 9.4 3.8 5.4 76 1.8 NE 24 32 13 17 1023.5 1023.7 0.0
22/02:00am 9.4 4.6 5.6 77 1.8 NE 20 30 11 16 1023.9 1024.2 0.0
22/01:30am 9.5 4.3 5.5 76 1.8 NE 22 32 12 17 1024.1 1024.4 0.0
22/01:00am 9.3 4.5 5.7 78 1.7 NE 20 30 11 16 1024.3 1024.6 0.0
22/12:30am 9.1 4.3 5.7 79 1.6 NE 20 28 11 15 1024.3 1024.6 0.0
22/12:00am 9.2 4.4 5.6 78 1.7 NE 20 28 11 15 1024.4 1024.7 0.0
 
Date/Time
CST
Temp
°C
App
Temp
°C
Dew
Point
Rel
Hum
%
Delta-T
°C
Wind Press
QNH
hPa
Press
MSL
hPa
Rain
since 9 am
mm
Dir
 
Spd
km/h
Gust
km/h
Spd
kts
Gust
kts
21/11:30pm 9.2 4.4 5.8 79 1.6 NE 20 26 11 14 1024.4 1024.7 0.0
21/11:00pm 9.4 4.8 5.8 78 1.7 NE 19 26 10 14 1024.5 1024.8 0.0
21/10:30pm 9.7 5.2 5.9 77 1.8 NE 19 24 10 13 1024.5 1024.8 0.0
21/10:00pm 9.9 5.7 5.9 76 1.9 NE 17 26 9 14 1024.6 1024.9 0.0
21/09:30pm 10.0 5.5 6.2 77 1.8 NE 19 24 10 13 1024.5 1024.8 0.0
21/09:00pm 10.3 5.8 6.3 76 1.9 NE 19 24 10 13 1024.5 1024.8 0.0
21/08:30pm 10.6 6.5 6.2 74 2.1 NE 17 22 9 12 1024.4 1024.7 0.0
21/08:00pm 10.8 7.2 6.6 75 2.0 NE 15 20 8 11 1024.3 1024.6 0.0
21/07:30pm 10.9 7.4 7.0 77 1.9 NE 15 20 8 11 1024.2 1024.5 0.0
21/07:00pm 11.2 7.8 7.5 78 1.8 NE 15 20 8 11 1024.1 1024.4 0.0
21/06:30pm 12.1 9.1 7.6 74 2.2 NE 13 19 7 10 1023.9 1024.2 0.0
21/06:00pm 12.7 9.7 7.8 72 2.4 ENE 13 15 7 8 1023.7 1024.0 0.0
21/05:30pm 13.3 10.8 8.4 72 2.5 ENE 11 13 6 7 1023.5 1023.7 0.0
21/05:00pm 13.1 11.0 8.4 73 2.4 E 9 13 5 7 1023.1 1023.3 0.0
21/04:30pm 13.5 11.4 8.4 71 2.6 E 9 11 5 6 1022.9 1023.1 0.0
21/04:00pm 13.9 11.8 8.1 68 2.9 ESE 9 13 5 7 1022.7 1022.9 0.0
21/03:30pm 14.7 13.9 6.5 58 4.0 CALM 0 7 0 4 1022.7 1022.9 0.0
21/03:00pm 15.0 13.9 6.8 58 4.1 W 2 9 1 5 1022.9 1023.1 0.0
21/02:30pm 14.5 11.8 5.8 56 4.2 WNW 9 17 5 9 1022.9 1023.1 0.0
21/02:00pm 15.5 13.0 6.5 55 4.5 W 9 15 5 8 1023.0 1023.2 0.0
21/01:30pm 15.0 12.3 5.8 54 4.5 W 9 15 5 8 1023.1 1023.3 0.0
21/01:00pm 14.9 12.7 5.4 53 4.6 W 6 11 3 6 1023.4 1023.6 0.0
21/12:30pm 14.9 12.7 6.2 56 4.3 NNE 7 13 4 7 1023.9 1024.2 0.0
21/12:00pm 13.8 11.3 4.9 55 4.2 N 7 13 4 7 1024.3 1024.6 0.0
21/11:30am 14.7 12.2 6.5 58 4.0 NE 9 13 5 7 1024.7 1025.0 0.0
21/11:00am 13.5 10.5 5.9 60 3.7 NE 11 17 6 9 1025.1 1025.3 0.0
21/10:30am 12.4 9.0 5.8 64 3.1 ENE 13 17 7 9 1025.3 1025.5 0.0
21/10:00am 11.8 8.4 6.1 68 2.7 NE 13 20 7 11 1025.4 1025.6 0.0
21/09:30am 10.2 6.3 5.4 72 2.2 NE 15 22 8 12 1025.7 1025.9 0.0
21/09:00am 8.8 4.0 4.8 76 1.8 NE 19 26 10 14 1025.7 1025.9 0.0
21/08:30am 8.1 3.1 4.5 78 1.6 NE 20 28 11 15 1025.7 1025.9 0.0
21/08:00am 6.9 1.8 3.9 81 1.3 NE 20 26 11 14 1025.6 1025.8 0.0
21/07:30am 6.1 0.9 3.4 83 1.2 NE 20 30 11 16 1025.4 1025.6 0.0
21/07:00am 5.3 0.2 3.2 86 0.9 ENE 19 26 10 14 1025.3 1025.5 0.0
21/06:30am 5.5 0.4 3.2 85 1.0 ENE 19 24 10 13 1025.1 1025.3 0.0
21/06:00am 5.2 0.1 3.2 87 0.8 ENE 19 24 10 13 1024.9 1025.1 0.0
21/05:30am 5.1 0.0 3.0 86 0.9 ENE 19 24 10 13 1024.9 1025.1 0.0
21/05:00am 5.1 0.0 3.0 86 0.9 ENE 19 24 10 13 1024.9 1025.1 0.0
21/04:30am 5.2 0.1 3.1 86 0.9 ENE 19 26 10 14 1024.7 1025.0 0.0
21/04:00am 5.3 0.0 3.2 86 0.9 ENE 20 30 11 16 1024.7 1025.0 0.0
21/03:30am 5.3 0.0 3.2 86 0.9 ENE 20 24 11 13 1024.7 1025.0 0.0
21/03:00am 5.5 0.4 3.2 85 1.0 ENE 19 24 10 13 1024.9 1025.1 0.0
21/02:30am 5.7 1.0 3.2 84 1.1 ENE 17 20 9 11 1025.0 1025.2 0.0
21/02:00am 6.3 1.1 3.5 82 1.2 E 20 24 11 13 1025.1 1025.3 0.0
21/01:30am 6.1 1.4 3.4 83 1.2 E 17 22 9 12 1025.3 1025.5 0.0
21/01:00am 6.1 1.5 3.6 84 1.1 E 17 22 9 12 1025.4 1025.6 0.0
21/12:30am 6.0 1.4 3.7 85 1.0 E 17 20 9 11 1025.5 1025.7 0.0
21/12:00am 6.0 1.0 3.5 84 1.1 E 19 22 10 12 1025.5 1025.7 0.0
 
Date/Time
CST
Temp
°C
App
Temp
°C
Dew
Point
Rel
Hum
%
Delta-T
°C
Wind Press
QNH
hPa
Press
MSL
hPa
Rain
since 9 am
mm
Dir
 
Spd
km/h
Gust
km/h
Spd
kts
Gust
kts
20/11:30pm 6.2 1.6 3.5 83 1.2 E 17 22 9 12 1025.6 1025.8 0.0
20/11:00pm 6.4 1.4 3.6 82 1.2 E 19 22 10 12 1025.6 1025.8 0.0
20/10:30pm 6.5 1.3 3.7 82 1.2 E 20 26 11 14 1025.6 1025.8 0.0
20/10:00pm 6.5 1.6 4.2 85 1.0 ESE 19 24 10 13 1025.7 1025.9 0.0
20/09:30pm 6.5 1.7 4.5 87 0.9 ESE 19 30 10 16 1025.7 1025.9 0.0
20/09:00pm 6.1 1.6 4.4 89 0.7 ESE 17 22 9 12 1025.7 1025.9 0.0
20/08:30pm 6.4 2.0 4.6 88 0.8 ESE 17 30 9 16 1025.7 1025.9 0.0
20/08:00pm 6.1 1.9 3.9 86 1.0 SE 15 20 8 11 1025.7 1025.9 0.0
20/07:30pm 6.3 2.1 3.8 84 1.1 SE 15 20 8 11 1025.5 1025.7 0.0
20/07:00pm 6.5 2.3 4.0 84 1.1 ESE 15 20 8 11 1025.4 1025.6 0.0
20/06:30pm 6.5 2.3 4.0 84 1.1 ESE 15 19 8 10 1025.2 1025.4 0.0
20/06:00pm 7.0 2.9 4.1 82 1.3 ESE 15 20 8 11 1024.9 1025.1 0.0
20/05:30pm 7.7 3.2 4.3 79 1.5 ESE 17 22 9 12 1024.7 1025.0 0.0
20/05:00pm 8.5 5.3 4.9 78 1.6 ESE 11 17 6 9 1024.9 1025.1 0.0
20/04:30pm 8.7 4.6 4.5 75 1.9 ESE 15 22 8 12 1024.7 1025.0 0.0
20/04:00pm 9.1 4.7 4.9 75 1.9 ESE 17 20 9 11 1024.7 1025.0 0.0
20/03:30pm 9.5 5.5 5.1 74 2.0 ESE 15 20 8 11 1024.5 1024.8 0.0
20/03:00pm 9.8 6.2 5.2 73 2.1 SE 13 19 7 10 1024.7 1025.0 0.0
20/02:30pm 9.9 6.0 5.3 73 2.1 SE 15 24 8 13 1024.7 1025.0 0.0
20/02:00pm 10.9 8.2 5.7 70 2.5 SE 9 15 5 8 1024.6 1024.9 0.0
20/01:30pm 10.7 7.4 4.8 67 2.7 E 11 19 6 10 1024.7 1025.0 0.0
20/01:00pm 10.2 6.9 4.6 68 2.6 E 11 17 6 9 1025.1 1025.3 0.0
20/12:30pm 10.9 7.8 5.4 69 2.6 E 11 20 6 11 1025.4 1025.6 0.0
20/12:00pm 10.2 6.3 5.4 72 2.2 E 15 20 8 11 1025.8 1026.0 0.0
20/11:30am 9.7 4.9 4.9 72 2.2 ESE 19 28 10 15 1026.0 1026.3 0.0
20/11:00am 9.4 4.6 4.8 73 2.1 E 19 28 10 15 1026.2 1026.5 0.0
20/10:30am 9.5 4.5 4.5 71 2.3 E 20 30 11 16 1026.4 1026.7 0.0
20/10:00am 8.8 3.3 4.2 73 2.1 E 22 30 12 16 1026.3 1026.6 0.0
20/09:30am 8.2 2.3 4.0 75 1.9 E 24 33 13 18 1026.2 1026.5 0.0
20/09:00am 7.9 2.4 3.9 76 1.8 E 22 30 12 16 1026.1 1026.4 0.0
20/08:30am 7.3 2.2 3.9 79 1.5 E 20 30 11 16 1026.0 1026.3 0.0
20/08:00am 6.5 1.0 3.8 83 1.2 E 22 30 12 16 1025.7 1025.9 0.0
20/07:30am 5.9 1.0 4.1 88 0.8 E 19 24 10 13 1025.5 1025.7 0.0
20/07:00am 5.5 0.5 4.5 93 0.4 E 20 26 11 14 1025.3 1025.5 0.0
20/06:30am 5.7 0.7 4.5 92 0.5 E 20 26 11 14 1024.9 1025.1 0.0
20/06:00am 5.9 0.8 4.1 88 0.8 E 20 24 11 13 1024.9 1025.1 0.0
20/05:30am 5.9 1.0 3.9 87 0.9 E 19 22 10 12 1024.6 1024.9 0.0
20/05:00am 5.8 1.2 3.8 87 0.9 E 17 20 9 11 1024.5 1024.8 0.0
20/04:30am 6.0 1.1 4.2 88 0.8 E 19 24 10 13 1024.2 1024.5 0.0
20/04:00am 5.7 1.3 4.5 92 0.5 E 17 22 9 12 1024.2 1024.5 0.0
20/03:30am 6.2 1.8 4.5 89 0.7 ESE 17 22 9 12 1024.0 1024.3 0.0
20/03:00am 6.3 2.2 4.6 89 0.7 ESE 15 22 8 12 1024.1 1024.4 0.0
20/02:30am 6.4 2.9 5.5 94 0.4 ESE 13 19 7 10 1024.3 1024.6 0.0
20/02:00am 6.7 3.3 5.7 93 0.5 ESE 13 17 7 9 1024.4 1024.7 0.0
20/01:30am 7.1 4.1 5.9 92 0.5 E 11 15 6 8 1024.6 1024.9 0.0
20/01:00am 7.3 4.3 6.2 93 0.5 ESE 11 13 6 7 1024.5 1024.8 0.0
20/12:30am 7.3 4.8 6.4 94 0.4 ESE 9 11 5 6 1024.6 1024.9 0.0
20/12:00am 7.5 4.2 6.3 92 0.6 E 13 15 7 8 1024.9 1025.1 0.0
 
Date/Time
CST
Temp
°C
App
Temp
°C
Dew
Point
Rel
Hum
%
Delta-T
°C
Wind Press
QNH
hPa
Press
MSL
hPa
Rain
since 9 am
mm
Dir
 
Spd
km/h
Gust
km/h
Spd
kts
Gust
kts
19/11:30pm 7.4 4.5 6.3 93 0.5 ESE 11 13 6 7 1024.7 1025.0 0.0
19/11:00pm 7.4 4.4 6.0 91 0.6 ESE 11 13 6 7 1024.7 1025.0 0.0
19/10:30pm 7.7 4.7 6.2 90 0.7 SE 11 15 6 8 1024.9 1025.1 0.0
19/10:00pm 7.5 4.5 6.0 90 0.7 SE 11 15 6 8 1025.0 1025.2 0.0
19/09:30pm 7.6 4.6 5.9 89 0.8 SE 11 15 6 8 1025.1 1025.3 0.0
19/09:00pm 7.6 4.7 4.9 83 1.2 SE 9 17 5 9 1025.2 1025.4 0.0
19/08:30pm 7.7 5.2 4.5 80 1.4 SSE 7 11 4 6 1025.2 1025.4 0.0
19/08:00pm 7.7 4.8 4.5 80 1.4 SE 9 13 5 7 1025.1 1025.3 0.0
19/07:30pm 7.8 5.2 4.4 79 1.5 SE 7 11 4 6 1025.0 1025.2 0.0
19/07:00pm 7.9 5.0 4.5 79 1.5 SE 9 13 5 7 1024.7 1025.0 0.0
19/06:30pm 7.8 4.9 4.6 80 1.4 SSE 9 15 5 8 1024.5 1024.8 0.0
19/06:00pm 8.0 5.4 4.4 78 1.6 SSE 7 13 4 7 1024.3 1024.6 0.0
19/05:30pm 8.3 5.3 4.3 76 1.8 SSE 9 13 5 7 1024.0 1024.3 0.0
19/05:00pm 8.5 5.2 4.5 76 1.8 S 11 20 6 11 1023.8 1024.1 0.0
19/04:30pm 9.0 6.2 5.0 76 1.8 SSE 9 13 5 7 1023.8 1024.1 0.0
19/04:00pm 9.6 6.4 5.2 74 2.0 SE 11 20 6 11 1023.5 1023.7 0.0
19/03:30pm 9.4 5.8 5.2 75 1.9 SE 13 20 7 11 1023.5 1023.7 0.0
19/03:00pm 10.2 7.5 5.8 74 2.1 ESE 9 15 5 8 1023.5 1023.7 0.0
19/02:30pm 9.0 4.7 5.2 77 1.7 SE 17 24 9 13 1023.5 1023.7 0.0
19/02:00pm 9.9 7.1 6.8 81 1.5 SE 11 19 6 10 1023.5 1023.7 0.0
19/01:30pm 9.1 5.9 6.9 86 1.0 SE 13 20 7 11 1023.6 1023.9 0.0

Other Formats:

Comma delimited format used in spreadsheet applications
http://www.bom.gov.au/fwo/IDS60801/IDS60801.94683.axf

JavaScript Object Notation format (JSON) in row-major order
http://www.bom.gov.au/fwo/IDS60801/IDS60801.94683.json